Time;durP1;ratioP1;P1;durP2;ratioP2;P2;SDS_P1;SDS_P2;PMS_P1;PMS_P2;Temp;Humidity;BMP_temperature;BMP_pressure;BME280_temperature;BME280_humidity;BME280_pressure;Samples;Min_cycle;Max_cycle;Signal;HPM_P1;HPM_P2
2022/01/25 00:31:15;;;;;;;28.50;9.80;;;;;;;-8.93;70.18;102672.69;107545;1246;71899;-74
2022/01/25 00:33:54;;;;;;;22.40;11.40;;;;;;;-9.02;69.95;102675.36;107533;1246;71532;-75
2022/01/25 00:36:26;;;;;;;20.90;8.40;;;;;;;-9.05;70.44;102673.37;107474;1246;74249;-75
2022/01/25 00:39:27;;;;;;;24.30;10.60;;;;;;;-9.09;70.52;102668.33;107447;1246;61990;-73
2022/01/25 00:41:59;;;;;;;26.30;10.50;;;;;;;-9.07;70.58;102662.82;107497;1246;59356;-76
2022/01/25 00:44:34;;;;;;;17.80;8.80;;;;;;;-9.05;70.57;102661.72;107544;1246;73393;-75
2022/01/25 00:47:06;;;;;;;14.50;7.10;;;;;;;-9.04;70.18;102659.08;107150;1247;70920;-75
2022/01/25 00:49:56;;;;;;;23.50;10.60;;;;;;;-9.12;70.13;102652.02;107302;1247;68758;-76
2022/01/25 00:55:37;;;;;;;19.90;9.20;;;;;;;-9.18;70.31;102652.30;107352;1246;60203;-74
2022/01/25 00:58:10;;;;;;;19.30;9.10;;;;;;;-9.17;71.35;102659.25;107545;1246;61337;-76
2022/01/25 01:00:39;;;;;;;10.20;6.50;;;;;;;-9.07;72.35;102662.15;107571;1247;75987;-73
2022/01/25 01:03:36;;;;;;;22.70;11.10;;;;;;;-9.01;72.37;102662.41;107540;1246;73120;-74
2022/01/25 01:06:20;;;;;;;15.80;7.60;;;;;;;-9.03;71.83;102665.20;107555;1247;70964;-75
2022/01/25 01:08:50;;;;;;;17.80;9.90;;;;;;;-9.08;71.28;102664.50;107522;1247;72271;-75
2022/01/25 01:11:28;;;;;;;14.20;6.30;;;;;;;-9.02;71.41;102658.96;107614;1246;62911;-74
2022/01/25 01:14:16;;;;;;;26.00;11.20;;;;;;;-9.04;70.97;102654.33;107675;1246;60183;-75
2022/01/25 01:31:21;;;;;;;17.80;9.20;;;;;;;-9.29;70.52;102639.19;107568;1247;59343;-72
2022/01/25 01:45:11;;;;;;;25.10;11.70;;;;;;;-9.67;70.66;102641.55;107785;1246;60505;-74
2022/01/25 01:50:25;;;;;;;23.90;11.90;;;;;;;-9.64;70.97;102642.84;107836;1246;72379;-75
2022/01/25 01:52:56;;;;;;;25.10;10.90;;;;;;;-9.65;71.01;102641.78;107827;1246;72917;-73
2022/01/25 01:55:27;;;;;;;26.70;11.90;;;;;;;-9.63;70.60;102639.49;107934;1246;69254;-75
2022/01/25 01:57:57;;;;;;;24.70;11.70;;;;;;;-9.67;70.51;102641.36;107829;1246;74399;-75
2022/01/25 02:00:35;;;;;;;31.20;13.40;;;;;;;-9.71;70.62;102640.71;107895;1246;61287;-74
2022/01/25 02:03:07;;;;;;;27.60;12.00;;;;;;;-9.70;71.26;102634.83;107774;1248;62502;-72
2022/01/25 02:05:37;;;;;;;30.10;11.40;;;;;;;-9.65;71.23;102633.52;107738;1249;72972;-73
2022/01/25 02:08:06;;;;;;;22.20;9.60;;;;;;;-9.65;70.83;102632.02;108053;1247;71516;-73
2022/01/25 02:10:36;;;;;;;23.30;11.50;;;;;;;-9.68;70.60;102629.52;107906;1247;69216;-73
2022/01/25 02:13:09;;;;;;;29.20;12.60;;;;;;;-9.82;70.73;102631.96;107889;1247;74731;-73
2022/01/25 02:15:40;;;;;;;;;;;;;;;-9.88;72.59;102636.96;107907;1247;63153;-73
2022/01/25 02:23:45;;;;;;;23.50;9.80;;;;;;;-9.70;70.55;102630.08;107403;1247;73835;-72
2022/01/25 02:26:14;;;;;;;29.10;13.10;;;;;;;-9.74;70.46;102629.25;107393;1248;70107;-73
2022/01/25 02:28:45;;;;;;;23.70;10.80;;;;;;;-9.73;70.59;102626.77;107616;1247;73620;-73
2022/01/25 02:31:16;;;;;;;19.00;9.00;;;;;;;-9.71;70.54;102630.22;107577;1248;60352;-72
2022/01/25 02:33:46;;;;;;;25.40;13.50;;;;;;;-9.71;70.39;102624.16;107594;1247;59738;-73
2022/01/25 02:36:26;;;;;;;32.90;16.00;;;;;;;-9.74;70.52;102622.19;107646;1247;75437;-73
2022/01/25 02:38:56;;;;;;;20.60;10.10;;;;;;;-9.84;70.85;102614.00;107537;1247;72625;-74
2022/01/25 02:41:25;;;;;;;25.90;12.00;;;;;;;-9.77;70.38;102608.56;107553;1247;69482;-73
2022/01/25 02:43:55;;;;;;;16.60;8.00;;;;;;;-9.77;70.53;102613.95;107515;1247;73113;-73
2022/01/25 02:49:04;;;;;;;20.50;9.50;;;;;;;-9.84;70.49;102609.13;107478;1247;60229;-72
2022/01/25 02:51:47;;;;;;;32.30;11.80;;;;;;;-9.84;70.61;102614.00;107473;1248;73362;-73
2022/01/25 02:54:17;;;;;;;25.10;7.70;;;;;;;-9.86;70.98;102610.03;107361;1247;72260;-75
2022/01/25 02:56:47;;;;;;;26.10;12.40;;;;;;;-9.81;70.67;102605.70;107365;1247;71779;-75
2022/01/25 02:59:17;;;;;;;25.90;12.00;;;;;;;-9.83;70.80;102600.39;107387;1249;70551;-76
2022/01/25 03:01:48;;;;;;;25.00;10.40;;;;;;;-9.77;70.71;102603.35;107432;1248;59824;-74
2022/01/25 03:04:20;;;;;;;22.40;10.20;;;;;;;-9.73;70.63;102602.66;107624;1247;58787;-72
2022/01/25 03:06:51;;;;;;;26.40;12.60;;;;;;;-9.74;70.70;102595.19;107872;1249;74538;-73
2022/01/25 03:09:20;;;;;;;23.40;11.40;;;;;;;-9.75;70.70;102594.49;107887;1246;71049;-73
2022/01/25 03:11:52;;;;;;;16.70;8.10;;;;;;;-9.71;70.61;102593.64;107636;1247;66996;-76
2022/01/25 03:14:26;;;;;;;28.70;12.10;;;;;;;-9.71;70.75;102591.94;107519;1247;71011;-76
2022/01/25 03:22:30;;;;;;;29.90;11.90;;;;;;;-9.66;70.58;102594.71;107595;1247;73945;-72
2022/01/25 03:25:00;;;;;;;23.80;10.80;;;;;;;-9.63;70.62;102581.16;107546;1247;70435;-72
2022/01/25 03:27:28;;;;;;;26.40;9.90;;;;;;;-9.64;70.65;102574.20;107513;1247;68927;-73
2022/01/25 03:29:57;;;;;;;33.30;14.50;;;;;;;-9.65;70.71;102564.36;107461;1247;72805;-72
2022/01/25 03:32:26;;;;;;;31.50;13.80;;;;;;;-9.68;70.72;102575.69;107472;1247;60337;-72
2022/01/25 03:34:55;;;;;;;14.20;7.20;;;;;;;-9.73;70.75;102572.14;107402;1249;61101;-72
2022/01/25 03:37:24;;;;;;;17.80;8.70;;;;;;;-9.81;70.86;102571.31;107513;1247;72867;-73
2022/01/25 03:39:53;;;;;;;20.00;8.50;;;;;;;-9.76;70.61;102575.05;107551;1247;71570;-72
2022/01/25 03:42:23;;;;;;;21.00;9.50;;;;;;;-9.74;70.92;102577.31;107519;1247;69563;-73
2022/01/25 03:44:53;;;;;;;21.50;9.10;;;;;;;-9.74;70.68;102569.75;107435;1247;73635;-73
2022/01/25 03:47:31;;;;;;;31.10;13.00;;;;;;;-9.80;70.87;102573.02;107603;1245;60335;-72
2022/01/25 03:50:00;;;;;;;24.00;9.10;;;;;;;-9.81;71.02;102572.65;107479;1249;61300;-73
2022/01/25 03:52:34;;;;;;;26.20;12.40;;;;;;;-9.77;70.92;102570.09;107533;1247;75418;-73
2022/01/25 03:55:06;;;;;;;29.90;12.00;;;;;;;-9.77;70.98;102560.83;107582;1247;70874;-73
2022/01/25 03:57:34;;;;;;;32.00;13.50;;;;;;;-9.77;71.02;102561.02;107582;1247;72172;-72
2022/01/25 04:00:07;;;;;;;26.50;11.70;;;;;;;-9.82;71.16;102564.87;107352;1248;73686;-73
2022/01/25 04:02:49;;;;;;;26.60;12.00;;;;;;;-9.80;71.29;102557.02;107557;1246;61525;-73
2022/01/25 04:05:23;;;;;;;28.10;11.10;;;;;;;-9.74;71.10;102556.59;107571;1246;61791;-73
2022/01/25 04:07:52;;;;;;;23.10;10.70;;;;;;;-9.70;71.10;102560.94;107462;1246;75123;-73
2022/01/25 04:10:27;;;;;;;20.10;8.90;;;;;;;-9.73;71.17;102564.88;107440;1246;72976;-70
2022/01/25 04:12:56;;;;;;;20.20;8.20;;;;;;;-9.73;71.38;102562.54;107393;1246;70076;-72
2022/01/25 04:15:26;;;;;;;26.10;12.50;;;;;;;-9.77;71.71;102558.63;107469;1246;72602;-72
2022/01/25 04:18:03;;;;;;;14.80;6.60;;;;;;;-9.70;71.52;102561.27;107434;1246;61744;-74
2022/01/25 04:20:35;;;;;;;21.00;8.00;;;;;;;-9.69;71.34;102563.71;107474;1246;62091;-73
2022/01/25 04:25:51;;;;;;;21.20;9.90;;;;;;;-9.66;71.24;102552.17;107547;1246;71133;-76
2022/01/25 04:28:20;;;;;;;18.20;9.20;;;;;;;-9.68;71.45;102547.20;107522;1246;68102;-74
2022/01/25 04:30:49;;;;;;;22.50;10.30;;;;;;;-9.70;71.39;102551.02;107470;1246;71932;-76
2022/01/25 04:33:23;;;;;;;23.90;10.60;;;;;;;-9.65;71.33;102544.80;107626;1246;60024;-75
2022/01/25 04:36:21;;;;;;;26.40;10.30;;;;;;;-9.70;71.46;102539.02;107479;1246;61596;-75
2022/01/25 04:49:58;;;;;;;26.80;12.20;;;;;;;-9.36;73.48;102533.45;107564;1246;61810;-73
2022/01/25 04:52:32;;;;;;;26.50;12.60;;;;;;;-9.28;72.77;102533.58;107589;1246;60649;-75
2022/01/25 04:55:14;;;;;;;32.40;13.10;;;;;;;-9.31;72.41;102534.30;107656;1246;73627;-74
2022/01/25 05:00:19;;;;;;;24.40;7.40;;;;;;;-9.35;71.88;102531.45;107822;1246;69466;-75
2022/01/25 05:02:57;;;;;;;27.90;13.20;;;;;;;-9.38;71.42;102538.08;107580;1248;73676;-74
2022/01/25 05:05:34;;;;;;;19.90;10.30;;;;;;;-9.45;71.28;102531.77;107725;1246;59965;-73
2022/01/25 05:08:33;;;;;;;29.80;15.00;;;;;;;-9.46;71.50;102532.88;107636;1246;57938;-73
2022/01/25 05:11:09;;;;;;;29.10;13.20;;;;;;;-9.46;72.54;102523.98;107534;1246;74839;-71
2022/01/25 05:19:21;;;;;;;27.00;12.10;;;;;;;-9.32;72.09;102525.34;107622;1246;72454;-73
2022/01/25 05:24:44;;;;;;;36.50;15.00;;;;;;;-9.32;72.01;102522.45;107557;1246;61530;-75
2022/01/25 05:27:16;;;;;;;23.90;10.60;;;;;;;-9.33;71.98;102522.60;107549;1247;73921;-76
2022/01/25 05:29:45;;;;;;;19.80;8.80;;;;;;;-9.40;71.81;102520.47;107577;1247;70356;-72
2022/01/25 05:32:14;;;;;;;25.60;13.00;;;;;;;-9.33;71.63;102518.02;107558;1246;68007;-74
2022/01/25 05:34:43;;;;;;;25.70;12.00;;;;;;;-9.42;71.55;102510.45;107606;1246;71734;-74
2022/01/25 05:37:12;;;;;;;34.20;15.30;;;;;;;-9.36;70.74;102504.42;107642;1246;62237;-74
2022/01/25 05:39:41;;;;;;;20.10;9.40;;;;;;;-9.44;70.94;102498.52;107583;1246;59736;-73
2022/01/25 05:44:55;;;;;;;14.20;8.70;;;;;;;-9.41;71.16;102500.69;107338;1248;68601;-75
2022/01/25 05:47:32;;;;;;;36.10;17.70;;;;;;;-9.45;70.81;102501.89;107462;1246;70960;-75
2022/01/25 05:50:01;;;;;;;11.00;6.70;;;;;;;-9.44;70.77;102499.59;107348;1246;73614;-75
2022/01/25 05:52:29;;;;;;;30.90;14.50;;;;;;;-9.45;70.70;102486.69;107496;1246;63158;-77
2022/01/25 05:55:00;;;;;;;20.00;10.20;;;;;;;-9.44;70.92;102488.10;107687;1246;62076;-74
2022/01/25 05:57:28;;;;;;;24.40;12.30;;;;;;;-9.44;70.84;102487.27;108154;1246;73580;-75
2022/01/25 05:59:58;;;;;;;24.70;13.00;;;;;;;-9.40;70.47;102488.41;107816;1248;70809;-70
2022/01/25 06:02:30;;;;;;;30.30;13.40;;;;;;;-9.38;71.26;102482.73;107861;1246;70560;-76
2022/01/25 06:04:59;;;;;;;23.20;10.90;;;;;;;-9.36;70.60;102479.62;107695;1246;73396;-79
2022/01/25 06:07:28;;;;;;;25.70;11.20;;;;;;;-9.44;70.45;102482.19;107622;1246;62581;-74
2022/01/25 06:09:57;;;;;;;25.00;11.50;;;;;;;-9.47;70.39;102483.75;107517;1247;60704;-74
2022/01/25 06:12:26;;;;;;;25.40;12.00;;;;;;;-9.48;70.10;102480.34;107536;1246;74537;-74
2022/01/25 06:14:55;;;;;;;33.20;15.70;;;;;;;-9.47;70.29;102480.23;107625;1246;71265;-75
2022/01/25 06:17:24;;;;;;;32.40;13.50;;;;;;;-9.47;70.71;102482.08;107618;1246;68093;-72
2022/01/25 06:19:53;;;;;;;24.90;11.20;;;;;;;-9.48;71.10;102483.06;107587;1246;74908;-74
2022/01/25 06:22:22;;;;;;;24.40;13.20;;;;;;;-9.43;70.57;102479.86;107498;1246;62692;-74
2022/01/25 06:24:52;;;;;;;29.40;12.60;;;;;;;-9.41;70.29;102477.75;107514;1247;60095;-75
2022/01/25 06:27:21;;;;;;;30.40;15.30;;;;;;;-9.43;70.13;102475.14;107554;1246;73585;-76
2022/01/25 06:29:50;;;;;;;30.50;14.60;;;;;;;-9.45;70.01;102471.88;107590;1246;72620;-75
2022/01/25 06:32:20;;;;;;;26.80;14.00;;;;;;;-9.48;69.87;102481.02;107386;1248;68351;-75
2022/01/25 06:34:49;;;;;;;32.60;13.70;;;;;;;-9.51;69.62;102481.39;107585;1247;72441;-75
2022/01/25 06:37:18;;;;;;;31.20;13.30;;;;;;;-9.55;69.95;102476.55;107530;1246;60570;-77
2022/01/25 06:39:49;;;;;;;22.50;10.00;;;;;;;-9.50;69.88;102469.30;107534;1247;60037;-74
2022/01/25 06:42:19;;;;;;;15.10;7.60;;;;;;;-9.63;70.37;102462.73;107559;1246;71753;-77
2022/01/25 06:44:52;;;;;;;21.30;11.00;;;;;;;-9.50;70.15;102455.96;107592;1246;69556;-73
2022/01/25 06:47:21;;;;;;;21.40;11.20;;;;;;;-9.51;69.65;102455.75;107793;1246;71009;-83
2022/01/25 06:49:50;;;;;;;27.80;11.00;;;;;;;-9.46;69.52;102452.94;107947;1246;73799;-78
2022/01/25 06:52:19;;;;;;;29.60;13.00;;;;;;;-9.53;69.88;102457.04;107879;1246;61760;-83
2022/01/25 06:54:48;;;;;;;25.10;11.80;;;;;;;-9.54;69.94;102461.36;107744;1246;60054;-75
2022/01/25 06:57:18;;;;;;;30.00;15.00;;;;;;;-9.56;70.03;102457.59;107673;1246;73480;-81
2022/01/25 06:59:47;;;;;;;26.10;11.90;;;;;;;-9.62;70.82;102459.41;107625;1246;72421;-80
2022/01/25 07:02:15;;;;;;;25.40;12.50;;;;;;;-9.41;70.10;102453.29;107467;1246;71096;-75
2022/01/25 07:04:45;;;;;;;18.50;8.40;;;;;;;-9.38;69.98;102453.89;107385;1247;75615;-78
2022/01/25 07:07:14;;;;;;;24.60;12.80;;;;;;;-9.34;69.97;102448.96;107294;1246;63068;-76
2022/01/25 07:09:43;;;;;;;34.10;14.70;;;;;;;-9.31;69.95;102449.60;107344;1246;59617;-77
2022/01/25 07:12:12;;;;;;;24.90;12.30;;;;;;;-9.31;70.70;102441.85;107399;1246;72874;-73
2022/01/25 07:14:41;;;;;;;17.00;8.00;;;;;;;-9.21;71.16;102441.03;107360;1246;70759;-78
2022/01/25 07:17:10;;;;;;;28.00;12.40;;;;;;;-9.26;71.04;102428.52;107428;1246;68695;-77
2022/01/25 07:19:40;;;;;;;26.90;11.60;;;;;;;-9.08;70.97;102431.86;107446;1246;75123;-77
2022/01/25 07:22:09;;;;;;;34.60;14.80;;;;;;;-8.94;70.57;102427.95;107460;1246;62691;-76
2022/01/25 07:24:39;;;;;;;25.50;14.20;;;;;;;-8.91;70.62;102435.17;107400;1246;60671;-76
2022/01/25 07:27:09;;;;;;;21.90;9.70;;;;;;;-8.84;69.92;102439.29;107276;1246;73356;-75
2022/01/25 07:29:37;;;;;;;16.70;8.90;;;;;;;-8.79;69.36;102444.36;107333;1246;72908;-79
2022/01/25 07:32:07;;;;;;;23.40;12.10;;;;;;;-8.79;69.29;102445.52;107327;1246;71944;-76
2022/01/25 07:34:39;;;;;;;;;;;;;;;-8.84;69.39;102441.48;107080;1247;74765;-80
2022/01/25 07:37:19;;;;;;;25.20;11.60;;;;;;;-8.76;69.64;102442.44;107438;1246;62020;-74
2022/01/25 07:39:49;;;;;;;17.60;9.20;;;;;;;-8.77;69.26;102440.88;107528;1246;59514;-72
2022/01/25 07:42:27;;;;;;;26.30;14.00;;;;;;;-8.80;69.18;102439.27;107408;1247;71686;-76
2022/01/25 07:44:57;;;;;;;23.70;10.70;;;;;;;-8.91;68.88;102446.64;107270;1247;72197;-76
2022/01/25 07:47:27;;;;;;;19.80;10.40;;;;;;;-8.86;68.90;102449.70;107423;1246;69413;-77
2022/01/25 07:49:57;;;;;;;22.60;11.90;;;;;;;-8.87;68.80;102448.98;107454;1246;74587;-77
2022/01/25 07:52:30;;;;;;;;;;;;;;;-8.88;68.69;102447.41;107457;1246;62758;-74
2022/01/25 07:54:59;;;;;;;28.10;13.10;;;;;;;-8.76;69.66;102445.98;107132;1246;60567;-75
2022/01/25 07:57:28;;;;;;;22.20;10.70;;;;;;;-8.76;69.53;102446.16;107974;1247;72459;-78
2022/01/25 07:59:58;;;;;;;15.90;6.90;;;;;;;-8.65;69.15;102439.78;107579;1246;70175;-78
2022/01/25 08:02:27;;;;;;;23.70;11.20;;;;;;;-8.60;68.55;102436.92;107337;1247;68738;-79
2022/01/25 08:05:25;;;;;;;25.50;12.20;;;;;;;-8.66;68.74;102435.87;107353;1246;73940;-78
2022/01/25 08:08:23;;;;;;;21.60;10.30;;;;;;;-8.46;69.13;102433.83;106594;1254;60262;-80
2022/01/25 08:10:57;;;;;;;22.20;10.60;;;;;;;-8.41;68.80;102433.98;106904;1252;60206;-80
2022/01/25 08:13:27;;;;;;;22.40;11.90;;;;;;;-8.38;68.62;102426.82;107009;1252;74920;-78
2022/01/25 08:16:13;;;;;;;20.50;9.60;;;;;;;-8.37;67.52;102431.55;107003;1252;72915;-79
2022/01/25 08:18:44;;;;;;;22.20;10.60;;;;;;;-8.58;68.06;102432.06;107045;1252;69827;-78
2022/01/25 08:21:31;;;;;;;21.70;11.10;;;;;;;-8.53;68.29;102428.49;107042;1252;74350;-77
2022/01/25 08:24:20;;;;;;;19.00;9.60;;;;;;;-8.33;67.77;102427.45;106737;1254;62454;-73
2022/01/25 08:27:06;;;;;;;27.30;13.70;;;;;;;-8.30;67.85;102430.27;106796;1252;59803;-72
2022/01/25 08:29:41;;;;;;;29.90;13.40;;;;;;;-8.49;67.74;102423.25;106899;1252;73968;-72
2022/01/25 08:32:37;;;;;;;28.10;13.40;;;;;;;-8.24;67.64;102416.24;106901;1252;71083;-70
2022/01/25 08:35:24;;;;;;;17.30;9.30;;;;;;;-8.17;67.18;102416.31;106928;1252;69955;-71
2022/01/25 08:38:07;;;;;;;;;;;;;;;-8.16;66.80;102422.27;106904;1252;74484;-71
2022/01/25 08:40:40;;;;;;;22.00;9.80;;;;;;;-8.18;66.44;102421.16;106941;1252;59035;-71
2022/01/25 08:43:09;;;;;;;23.50;11.40;;;;;;;-8.36;68.01;102418.06;107292;1248;60638;-73
2022/01/25 08:45:42;;;;;;;;;;;;;;;-8.35;68.02;102417.11;107983;1246;71513;-73
2022/01/25 08:48:21;;;;;;;25.80;14.90;;;;;;;-8.22;68.40;102415.47;108192;1244;70738;-73
2022/01/25 08:51:06;;;;;;;21.60;12.30;;;;;;;-8.35;67.40;102408.98;107982;1246;67935;-73
2022/01/25 08:53:50;;;;;;;22.10;10.00;;;;;;;-8.36;67.05;102411.98;107736;1248;71381;-77
2022/01/25 08:56:19;;;;;;;22.90;12.40;;;;;;;-8.31;66.96;102401.17;107689;1248;62190;-86
2022/01/25 08:59:04;;;;;;;26.70;12.50;;;;;;;-8.22;67.49;102388.07;107256;1252;59587;-79
2022/01/25 09:01:34;;;;;;;25.70;10.60;;;;;;;-8.02;67.20;102389.40;107112;1254;71810;-84
2022/01/25 09:04:05;;;;;;;24.80;12.30;;;;;;;-7.98;67.35;102382.42;106986;1252;72865;-74
2022/01/25 09:06:34;;;;;;;27.60;11.80;;;;;;;-7.80;66.83;102376.17;106879;1252;71987;-76
2022/01/25 09:09:07;;;;;;;31.90;14.10;;;;;;;-7.72;65.76;102376.92;106969;1252;72358;-75
2022/01/25 09:11:39;;;;;;;27.50;12.20;;;;;;;-7.71;66.96;102376.08;106892;1252;61845;-75
2022/01/25 09:14:08;;;;;;;31.90;14.10;;;;;;;-7.69;65.50;102374.80;107140;1252;60333;-77
2022/01/25 09:16:38;;;;;;;26.60;12.60;;;;;;;-7.83;65.76;102372.53;106742;1254;73136;-75
2022/01/25 09:19:08;;;;;;;33.10;17.00;;;;;;;-8.01;66.55;102369.79;106821;1254;71079;-79
2022/01/25 09:21:37;;;;;;;30.50;14.10;;;;;;;-7.65;66.44;102363.06;106805;1254;68861;-77
2022/01/25 09:24:07;;;;;;;26.70;13.40;;;;;;;-7.31;65.80;102359.27;106593;1252;73013;-78
2022/01/25 09:26:37;;;;;;;38.70;17.80;;;;;;;-7.15;64.89;102346.17;106883;1252;60468;-80
2022/01/25 09:29:06;;;;;;;34.50;16.10;;;;;;;-6.96;64.20;102350.21;106960;1252;60631;-76
2022/01/25 09:31:35;;;;;;;31.00;15.00;;;;;;;-6.96;64.35;102351.92;106979;1252;73477;-79
2022/01/25 09:34:05;;;;;;;31.70;14.70;;;;;;;-6.92;64.47;102353.20;106916;1252;72630;-78
2022/01/25 09:36:34;;;;;;;19.70;10.70;;;;;;;-6.92;64.84;102347.27;107300;1246;70320;-78
2022/01/25 09:39:03;;;;;;;22.90;11.60;;;;;;;-7.26;64.95;102348.73;107525;1247;74502;-80
2022/01/25 09:41:33;;;;;;;23.60;11.20;;;;;;;-7.17;64.03;102338.83;107512;1246;60807;-75
2022/01/25 09:44:02;;;;;;;27.50;11.50;;;;;;;-7.19;64.05;102331.67;107570;1246;62106;-77
2022/01/25 09:46:31;;;;;;;31.20;14.70;;;;;;;-7.18;64.66;102326.78;107309;1247;73371;-76
2022/01/25 09:49:01;;;;;;;26.50;13.40;;;;;;;-7.10;64.28;102320.71;107492;1247;72824;-78
2022/01/25 09:51:31;;;;;;;19.20;8.70;;;;;;;-7.14;64.44;102318.60;107395;1246;71372;-75
2022/01/25 09:54:00;;;;;;;26.60;12.20;;;;;;;-7.07;65.62;102317.92;107655;1246;74306;-74
2022/01/25 09:56:31;;;;;;;12.80;6.20;;;;;;;-6.95;65.30;102319.60;107383;1246;62008;-77
2022/01/25 09:59:01;;;;;;;23.90;11.00;;;;;;;-6.82;64.43;102316.70;107297;1247;59315;-76
2022/01/25 10:01:37;;;;;;;30.30;13.50;;;;;;;-6.65;63.46;102312.36;107420;1246;73307;-76
2022/01/25 10:04:30;;;;;;;28.90;14.60;;;;;;;-6.66;63.69;102303.88;107279;1246;72034;-75
2022/01/25 10:07:05;;;;;;;27.70;13.40;;;;;;;-6.61;63.24;102293.47;107311;1246;70725;-76
2022/01/25 10:09:42;;;;;;;24.90;12.40;;;;;;;-6.57;63.27;102292.70;107293;1246;71914;-74
2022/01/25 10:12:20;;;;;;;28.60;12.60;;;;;;;-6.64;63.39;102283.23;107331;1247;60595;-81
2022/01/25 10:15:16;;;;;;;28.90;13.00;;;;;;;-6.53;63.66;102278.25;107333;1247;62206;-75
2022/01/25 10:18:05;;;;;;;32.90;15.50;;;;;;;-6.51;63.85;102264.89;107469;1246;75535;-77
2022/01/25 10:20:40;;;;;;;30.20;14.60;;;;;;;-6.42;63.45;102257.95;107448;1247;70654;-77
2022/01/25 10:23:30;;;;;;;28.60;12.90;;;;;;;-6.29;63.45;102257.75;107591;1246;69781;-80
2022/01/25 10:26:02;;;;;;;35.00;15.60;;;;;;;-6.15;62.67;102259.57;107328;1246;72736;-77
2022/01/25 10:28:31;;;;;;;33.30;14.30;;;;;;;-6.38;63.15;102253.64;107382;1246;59544;-78
2022/01/25 10:31:05;;;;;;;32.00;15.70;;;;;;;-6.24;63.06;102249.89;107269;1248;61308;-74
2022/01/25 10:33:50;;;;;;;27.40;12.20;;;;;;;-6.05;63.00;102251.45;107351;1246;74898;-76
2022/01/25 10:36:49;;;;;;;32.20;15.90;;;;;;;-6.02;62.81;102243.88;107374;1246;70904;-75
2022/01/25 10:39:34;;;;;;;22.80;10.30;;;;;;;-5.93;62.61;102237.10;107385;1246;71095;-75
2022/01/25 10:42:18;;;;;;;29.30;13.30;;;;;;;-5.80;62.20;102233.09;107458;1246;73082;-76
2022/01/25 10:44:58;;;;;;;;;;;;;;;-5.85;62.91;102229.94;107422;1246;61035;-76
2022/01/25 10:47:42;;;;;;;23.30;12.20;;;;;;;-5.80;62.58;102227.33;107571;1246;59252;-77
2022/01/25 10:50:20;;;;;;;26.00;13.90;;;;;;;-5.67;62.92;102219.08;107527;1246;75350;-79
2022/01/25 10:53:07;;;;;;;25.10;12.20;;;;;;;-5.21;64.15;102211.74;107621;1246;70378;-76
2022/01/25 10:55:46;;;;;;;31.70;15.60;;;;;;;-4.86;63.04;102204.30;108284;1246;68109;-76
2022/01/25 10:58:16;;;;;;;36.40;16.50;;;;;;;-4.63;62.49;102199.36;107853;1246;72268;-78
2022/01/25 11:00:51;;;;;;;31.30;15.40;;;;;;;-4.42;61.98;102195.91;107436;1246;61321;-78
2022/01/25 11:03:35;;;;;;;30.60;15.40;;;;;;;-4.34;60.64;102186.30;107439;1246;61486;-77
2022/01/25 11:06:16;;;;;;;;;;;;;;;-4.27;59.40;102191.34;107368;1247;73958;-84
2022/01/25 11:08:53;;;;;;;31.40;16.10;;;;;;;-4.20;59.77;102184.45;107634;1246;70401;-84
2022/01/25 11:11:44;;;;;;;27.40;10.90;;;;;;;-4.05;59.39;102176.45;107398;1246;68570;-81
2022/01/25 11:17:04;;;;;;;30.60;15.50;;;;;;;-3.36;56.10;102159.23;107395;1248;59385;-80
2022/01/25 11:19:35;;;;;;;24.60;13.30;;;;;;;-3.43;56.98;102155.61;107456;1246;60439;-81
2022/01/25 11:22:05;;;;;;;24.00;12.90;;;;;;;-3.16;54.40;102152.40;107349;1246;75263;-81
2022/01/25 11:24:34;;;;;;;24.10;10.80;;;;;;;-3.38;56.00;102151.55;107481;1246;72310;-79
2022/01/25 11:27:06;;;;;;;32.80;14.50;;;;;;;-3.16;55.36;102146.26;107406;1247;69238;-87
2022/01/25 11:29:41;;;;;;;33.00;14.90;;;;;;;-3.15;55.64;102144.05;107615;1246;73108;-89
2022/01/25 11:32:18;;;;;;;28.60;12.70;;;;;;;-2.87;55.52;102142.20;107420;1246;61424;-76
2022/01/25 11:34:50;;;;;;;26.70;12.80;;;;;;;-2.60;53.38;102137.56;108685;1248;60711;-82
2022/01/25 11:37:20;;;;;;;36.50;19.70;;;;;;;-2.41;52.84;102127.92;108396;1248;71858;-78
2022/01/25 11:39:50;;;;;;;41.60;18.60;;;;;;;-2.54;54.61;102125.48;107852;1246;71500;-79
2022/01/25 11:42:25;;;;;;;42.20;19.40;;;;;;;-2.11;52.94;102121.71;108094;1246;71021;-83
2022/01/25 11:44:58;;;;;;;21.70;9.40;;;;;;;-2.17;53.16;102119.80;107801;1246;74016;-84
2022/01/25 11:47:37;;;;;;;41.80;20.30;;;;;;;-1.77;51.37;102114.77;107626;1247;59517;-92
2022/01/25 11:50:10;;;;;;;29.20;15.50;;;;;;;-2.08;53.60;102109.77;107477;1249;61357;-87
2022/01/25 11:52:50;;;;;;;35.10;16.90;;;;;;;-1.87;54.09;102107.91;107727;1247;72451;-90
2022/01/25 11:55:21;;;;;;;29.80;14.10;;;;;;;-1.38;50.92;102097.86;107706;1246;72233;-87
2022/01/25 11:58:10;;;;;;;27.70;14.10;;;;;;;-1.42;49.97;102095.80;107767;1246;69296;-89
2022/01/25 12:00:48;;;;;;;27.50;13.20;;;;;;;-1.51;49.96;102088.80;107607;1246;73596;-81
2022/01/25 12:03:40;;;;;;;;;;;;;;;-1.46;50.20;102083.16;107573;1249;59793;-85
2022/01/25 12:06:21;;;;;;;21.50;10.30;;;;;;;-1.49;50.63;102076.33;107576;1246;60041;-86
2022/01/25 12:09:07;;;;;;;37.50;17.30;;;;;;;-1.01;48.79;102072.48;107524;1247;71727;-82
2022/01/25 12:12:06;;;;;;;31.30;16.20;;;;;;;-0.99;49.02;102067.52;107619;1246;72780;-80
2022/01/25 12:14:52;;;;;;;30.00;15.70;;;;;;;-0.93;49.38;102065.45;107511;1246;70360;-85
2022/01/25 12:17:34;;;;;;;30.90;15.30;;;;;;;-0.69;49.90;102068.44;107616;1246;72933;-85
2022/01/25 12:20:18;;;;;;;23.30;12.30;;;;;;;-0.41;48.41;102064.20;107536;1249;61915;-85
2022/01/25 12:23:05;;;;;;;29.50;15.20;;;;;;;-0.45;48.15;102066.27;107533;1249;60155;-83
2022/01/25 12:25:53;;;;;;;27.80;14.60;;;;;;;-0.46;48.32;102068.50;107643;1247;73701;-87
2022/01/25 12:28:46;;;;;;;23.00;12.40;;;;;;;-0.34;46.93;102059.71;107711;1248;70232;-83
2022/01/25 12:31:17;;;;;;;32.50;15.80;;;;;;;-0.50;47.53;102055.52;107590;1248;70560;-84
2022/01/25 12:33:46;;;;;;;34.80;16.40;;;;;;;-0.48;48.04;102049.53;107654;1249;74681;-85
2022/01/25 12:36:15;;;;;;;30.10;13.00;;;;;;;-0.10;46.23;102055.96;107653;1246;59611;-86
2022/01/25 12:38:52;;;;;;;30.70;15.40;;;;;;;-0.21;46.48;102052.44;107760;1248;60233;-86
2022/01/25 12:41:30;;;;;;;25.40;13.50;;;;;;;-0.39;47.10;102055.98;107977;1249;73332;-82
2022/01/25 12:44:05;;;;;;;28.50;15.90;;;;;;;-0.80;46.86;102055.13;107623;1247;72161;-84
2022/01/25 12:46:41;;;;;;;27.00;14.00;;;;;;;-0.61;48.23;102043.77;107247;1246;341827;-82
2022/01/25 12:49:16;;;;;;;28.10;13.90;;;;;;;-0.13;47.91;102046.22;107520;1247;72404;-84
2022/01/25 12:51:50;;;;;;;29.40;13.80;;;;;;;-0.18;47.10;102043.86;107639;1246;60521;-86
2022/01/25 12:54:19;;;;;;;30.50;15.80;;;;;;;-0.33;46.68;102041.56;107564;1246;59588;-88
2022/01/25 12:56:50;;;;;;;22.60;11.00;;;;;;;-0.25;47.61;102039.62;107621;1246;72835;-88
2022/01/25 12:59:24;;;;;;;29.40;14.80;;;;;;;-0.16;46.41;102038.20;107550;1247;71653;-82
2022/01/25 13:01:55;;;;;;;22.50;12.20;;;;;;;-0.40;46.79;102034.25;107346;1247;71125;-82
2022/01/25 13:04:25;;;;;;;25.70;13.80;;;;;;;-0.30;46.12;102031.62;107454;1247;71634;-83
2022/01/25 13:06:54;;;;;;;18.80;10.50;;;;;;;-0.41;46.24;102021.08;107428;1247;59734;-82
2022/01/25 13:09:29;;;;;;;24.10;13.10;;;;;;;-0.54;46.74;102016.69;107625;1246;60245;-90
2022/01/25 13:17:27;;;;;;;26.70;13.90;;;;;;;-0.63;46.94;102013.15;107652;1248;68436;-90
2022/01/25 13:20:02;;;;;;;27.20;14.00;;;;;;;-0.88;47.23;102010.35;107908;1248;72023;-77
2022/01/25 13:22:42;;;;;;;35.80;16.90;;;;;;;-0.83;47.65;102004.70;107961;1246;59571;-89
2022/01/25 13:25:31;;;;;;;30.40;14.90;;;;;;;-0.70;48.61;102002.23;108310;1246;58142;-91
2022/01/25 13:28:13;;;;;;;32.00;15.90;;;;;;;-0.48;48.39;102002.79;108097;1246;73430;-87